createdAt,value
2023-04-24T00:04:46.101Z,100.00
2023-04-24T00:09:37.976Z,100.00
2023-04-24T00:20:15.631Z,100.00
2023-04-24T00:25:07.990Z,100.00
2023-04-24T00:29:59.664Z,100.00
2023-04-24T00:34:51.347Z,100.00
2023-04-24T00:39:43.297Z,100.00
2023-04-24T00:44:35.799Z,100.00
2023-04-24T00:49:27.940Z,100.00
2023-04-24T00:54:19.654Z,100.00
2023-04-24T00:59:13.340Z,100.00
2023-04-24T01:04:05.590Z,100.00
2023-04-24T01:08:58.992Z,100.00
2023-04-24T01:13:50.858Z,100.00
2023-04-24T01:18:43.393Z,100.00
2023-04-24T01:23:35.784Z,100.00
2023-04-24T01:28:27.587Z,100.00
2023-04-24T01:33:19.372Z,100.00
2023-04-24T01:38:11.687Z,100.00
2023-04-24T01:43:03.536Z,100.00
2023-04-24T01:47:55.482Z,100.00
2023-04-24T01:52:47.200Z,100.00
2023-04-24T01:57:39.778Z,100.00
2023-04-24T02:02:32.112Z,100.00
2023-04-24T02:07:24.010Z,100.00
2023-04-24T02:12:18.814Z,100.00
2023-04-24T02:17:10.867Z,100.00
2023-04-24T02:22:02.562Z,100.00
2023-04-24T02:26:54.227Z,100.00
2023-04-24T02:31:55.280Z,100.00
2023-04-24T02:36:47.293Z,100.00
2023-04-24T02:41:39.082Z,100.00
2023-04-24T02:46:30.832Z,100.00
2023-04-24T02:51:22.601Z,100.00
2023-04-24T02:56:14.324Z,100.00
2023-04-24T03:01:06.161Z,100.00
2023-04-24T03:05:58.270Z,100.00
2023-04-24T03:10:50.261Z,100.00
2023-04-24T03:15:41.966Z,100.00
2023-04-24T03:20:33.687Z,100.00
2023-04-24T03:25:25.920Z,100.00
2023-04-24T03:30:17.835Z,100.00
2023-04-24T03:35:09.850Z,100.00
2023-04-24T03:40:02.580Z,100.00
2023-04-24T03:44:54.945Z,100.00
2023-04-24T03:49:46.801Z,100.00
2023-04-24T03:54:38.466Z,100.00
2023-04-24T03:59:30.196Z,100.00
2023-04-24T04:04:22.534Z,100.00
2023-04-24T04:09:15.586Z,100.00
2023-04-24T04:14:07.379Z,100.00
2023-04-24T04:18:59.485Z,100.00
2023-04-24T04:23:51.453Z,100.00
2023-04-24T04:28:43.164Z,100.00
2023-04-24T04:33:37.004Z,100.00
2023-04-24T04:38:30.865Z,100.00
2023-04-24T04:43:22.617Z,100.00
2023-04-24T04:48:15.077Z,100.00
2023-04-24T04:53:07.558Z,100.00
2023-04-24T04:58:01.153Z,100.00
2023-04-24T05:02:53.120Z,100.00
2023-04-24T05:07:45.350Z,100.00
2023-04-24T05:12:37.557Z,100.00
2023-04-24T05:17:31.234Z,100.00
2023-04-24T05:22:23.654Z,100.00
2023-04-24T05:27:17.186Z,100.00
2023-04-24T05:32:10.713Z,100.00
2023-04-24T05:37:02.869Z,100.00
2023-04-24T05:41:54.551Z,100.00
2023-04-24T05:46:47.137Z,100.00
2023-04-24T05:51:40.285Z,100.00
2023-04-24T05:56:32.323Z,100.00
2023-04-24T06:01:24.888Z,100.00
2023-04-24T06:06:16.940Z,100.00
2023-04-24T06:11:16.275Z,100.00
2023-04-24T06:16:09.526Z,100.00
2023-04-24T06:21:01.738Z,94.71
2023-04-24T06:30:59.133Z,90.09
2023-04-24T06:35:51.673Z,89.94
2023-04-24T06:40:46.737Z,91.07
2023-04-24T06:45:40.884Z,88.41
2023-04-24T06:50:33.522Z,85.02
2023-04-24T06:55:25.210Z,81.91
2023-04-24T07:00:17.829Z,80.51
2023-04-24T07:05:09.697Z,78.44
2023-04-24T07:10:02.319Z,75.62
2023-04-24T07:14:54.293Z,74.40
2023-04-24T07:19:46.935Z,74.05
2023-04-24T07:24:46.914Z,74.75
2023-04-24T07:34:46.902Z,75.99
2023-04-24T07:39:39.116Z,71.35
2023-04-24T07:44:30.984Z,71.09
2023-04-24T07:49:22.725Z,71.31
2023-04-24T07:54:15.339Z,71.73
2023-04-24T07:59:09.832Z,71.82
2023-04-24T08:04:02.131Z,69.22
2023-04-24T08:08:55.332Z,72.00
2023-04-24T08:13:47.061Z,76.94
2023-04-24T08:18:39.433Z,73.67
2023-04-24T08:23:34.126Z,69.96
2023-04-24T08:33:39.298Z,71.54
2023-04-24T08:43:42.745Z,68.77
2023-04-24T08:48:35.534Z,69.51
2023-04-24T08:53:27.927Z,69.78
2023-04-24T08:58:20.575Z,67.91
2023-04-24T09:03:12.532Z,67.14
2023-04-24T09:08:08.292Z,66.27
2023-04-24T09:13:02.819Z,65.19
2023-04-24T09:17:57.351Z,63.58
2023-04-24T09:22:49.233Z,64.17
2023-04-24T09:27:46.301Z,64.06
2023-04-24T09:32:38.230Z,63.60
2023-04-24T09:37:39.295Z,62.60
2023-04-24T09:42:32.750Z,61.39
2023-04-24T09:47:25.087Z,61.33
2023-04-24T09:52:18.483Z,60.64
2023-04-24T10:02:25.376Z,57.75
2023-04-24T10:07:17.849Z,56.58
2023-04-24T10:12:12.182Z,53.72
2023-04-24T10:38:27.055Z,55.43
2023-04-24T10:48:28.794Z,54.40
2023-04-24T10:58:53.949Z,52.98
2023-04-24T11:15:06.581Z,50.53
2023-04-24T11:35:58.176Z,51.97
2023-04-24T11:40:50.847Z,53.58
2023-04-24T11:45:49.790Z,53.39
2023-04-24T12:01:06.501Z,51.13
2023-04-24T12:11:24.357Z,52.25
2023-04-24T12:42:00.925Z,52.52
2023-04-24T12:52:00.900Z,49.69
2023-04-24T12:56:53.617Z,49.39
2023-04-24T13:01:46.555Z,49.67
2023-04-24T13:06:39.418Z,49.40
2023-04-24T13:11:39.874Z,49.15
2023-04-24T13:32:02.603Z,48.52
2023-04-24T13:37:00.668Z,47.11
2023-04-24T13:47:02.255Z,46.89
2023-04-24T13:51:56.499Z,46.51
2023-04-24T13:56:49.146Z,47.14
2023-04-24T14:01:43.139Z,47.22
2023-04-24T14:11:45.494Z,47.28
2023-04-24T14:16:39.798Z,48.44
2023-04-24T14:21:34.363Z,48.00
2023-04-24T14:26:27.245Z,47.48
2023-04-24T14:31:22.990Z,47.48
2023-04-24T14:36:16.937Z,47.68
2023-04-24T14:41:13.886Z,49.07
2023-04-24T14:51:16.123Z,48.54
2023-04-24T14:56:09.030Z,48.66
2023-04-24T15:01:06.019Z,50.67
2023-04-24T15:05:59.530Z,51.52
2023-04-24T15:16:01.773Z,53.30
2023-04-24T15:20:55.440Z,52.85
2023-04-24T15:25:54.609Z,52.25
2023-04-24T15:30:50.687Z,51.51
2023-04-24T15:35:43.253Z,49.96
2023-04-24T15:40:38.668Z,48.69
2023-04-24T15:45:31.293Z,49.57
2023-04-24T15:50:24.083Z,49.59
2023-04-24T16:00:21.996Z,50.06
2023-04-24T16:10:20.325Z,50.50
2023-04-24T16:15:12.419Z,51.36
2023-04-24T16:20:05.427Z,52.11
2023-04-24T16:24:58.467Z,52.80
2023-04-24T16:29:50.604Z,52.41
2023-04-24T16:34:42.835Z,53.06
2023-04-24T16:39:35.285Z,53.00
2023-04-24T16:44:27.482Z,55.05
2023-04-24T16:49:23.404Z,55.38
2023-04-24T16:54:15.186Z,56.30
2023-04-24T16:59:07.811Z,55.66
2023-04-24T17:03:59.879Z,54.55
2023-04-24T17:08:54.426Z,52.79
2023-04-24T17:13:53.959Z,52.04
2023-04-24T17:18:46.666Z,53.92
2023-04-24T17:23:41.103Z,55.63
2023-04-24T17:33:41.124Z,55.20
2023-04-24T17:38:33.686Z,55.34
2023-04-24T17:43:26.044Z,54.92
2023-04-24T17:53:35.585Z,54.78
2023-04-24T17:58:28.328Z,54.73
2023-04-24T18:13:45.532Z,59.50
2023-04-24T18:18:38.245Z,59.88
2023-04-24T18:38:49.216Z,60.03
2023-04-24T18:43:41.973Z,60.69
2023-04-24T18:53:40.596Z,61.64
2023-04-24T18:58:33.359Z,62.42
2023-04-24T19:03:25.250Z,62.96
2023-04-24T19:08:16.988Z,62.96
2023-04-24T19:13:08.732Z,63.22
2023-04-24T19:18:00.480Z,63.60
2023-04-24T19:22:53.716Z,64.09
2023-04-24T19:27:46.959Z,64.01
2023-04-24T19:32:39.648Z,64.38
2023-04-24T19:37:40.323Z,64.61
2023-04-24T19:42:43.092Z,65.21
2023-04-24T19:47:35.462Z,65.81
2023-04-24T19:52:27.736Z,66.15
2023-04-24T19:57:20.092Z,66.29
2023-04-24T20:02:18.549Z,65.80
2023-04-24T20:07:14.567Z,66.33
2023-04-24T20:12:09.811Z,66.30
2023-04-24T20:17:02.134Z,66.12
2023-04-24T20:21:55.507Z,66.58
2023-04-24T20:26:55.658Z,66.55
2023-04-24T20:31:49.216Z,66.98
2023-04-24T20:36:45.590Z,67.03
2023-04-24T20:41:40.593Z,67.27
2023-04-24T20:46:33.113Z,67.74
2023-04-24T20:51:24.950Z,68.20
2023-04-24T20:56:17.482Z,68.60
2023-04-24T21:01:09.178Z,69.22
2023-04-24T21:06:00.932Z,69.68
2023-04-24T21:10:56.504Z,69.42
2023-04-24T21:15:48.389Z,70.38
2023-04-24T21:20:40.779Z,70.98
2023-04-24T21:30:41.179Z,72.75
2023-04-24T21:35:33.508Z,73.34
2023-04-24T21:40:25.245Z,74.00
2023-04-24T21:45:17.095Z,74.29
2023-04-24T21:50:10.833Z,74.44
2023-04-24T21:55:03.621Z,75.59
2023-04-24T21:59:56.998Z,76.34
2023-04-24T22:20:46.475Z,77.39
2023-04-24T22:30:45.849Z,76.83
2023-04-24T22:35:37.678Z,77.01
2023-04-24T22:40:38.038Z,77.23
2023-04-24T22:45:29.785Z,76.26
2023-04-24T23:27:27.884Z,77.36
2023-04-24T23:32:19.659Z,77.89
2023-04-24T23:37:12.175Z,77.54
2023-04-24T23:42:04.281Z,76.57
2023-04-24T23:46:57.369Z,76.52
2023-04-24T23:51:49.758Z,77.27
2023-04-24T23:56:41.696Z,77.77
